createdAt,value
2019-03-19T00:02:12.522Z,83.67
2019-03-19T00:04:44.477Z,81.91
2019-03-19T00:07:16.455Z,82.35
2019-03-19T00:09:48.561Z,82.49
2019-03-19T00:12:20.571Z,82.46
2019-03-19T00:14:52.527Z,83.03
2019-03-19T00:17:24.501Z,83.07
2019-03-19T00:19:56.455Z,83.27
2019-03-19T00:22:28.429Z,83.12
2019-03-19T00:25:00.419Z,83.55
2019-03-19T00:27:32.408Z,83.16
2019-03-19T00:30:05.634Z,83.09
2019-03-19T00:32:37.589Z,82.71
2019-03-19T00:35:09.743Z,82.78
2019-03-19T00:37:41.758Z,82.25
2019-03-19T00:40:13.730Z,82.83
2019-03-19T00:42:45.714Z,83.11
2019-03-19T00:45:17.696Z,83.51
2019-03-19T00:47:49.647Z,83.55
2019-03-19T00:50:21.598Z,83.60
2019-03-19T00:52:53.595Z,83.29
2019-03-19T00:55:25.579Z,82.63
2019-03-19T00:57:57.579Z,82.97
2019-03-19T01:00:30.616Z,83.64
2019-03-19T01:03:02.612Z,83.12
2019-03-19T01:05:34.542Z,82.28
2019-03-19T01:08:06.700Z,82.15
2019-03-19T01:10:38.700Z,82.10
2019-03-19T01:13:10.661Z,82.28
2019-03-19T01:15:42.604Z,82.21
2019-03-19T01:18:14.566Z,82.34
2019-03-19T01:20:46.503Z,82.64
2019-03-19T01:23:18.534Z,82.92
2019-03-19T01:25:55.442Z,83.24
2019-03-19T01:28:24.330Z,83.51
2019-03-19T01:30:57.404Z,83.18
2019-03-19T01:33:29.377Z,83.04
2019-03-19T01:36:01.338Z,83.33
2019-03-19T01:38:33.318Z,82.88
2019-03-19T01:41:05.287Z,83.29
2019-03-19T01:43:37.265Z,82.84
2019-03-19T01:46:09.213Z,81.87
2019-03-19T01:48:41.189Z,81.90
2019-03-19T01:51:13.174Z,82.00
2019-03-19T01:53:45.223Z,82.02
2019-03-19T01:56:17.453Z,82.46
2019-03-19T01:58:49.393Z,82.85
2019-03-19T02:01:21.373Z,82.58
2019-03-19T02:03:53.332Z,81.89
2019-03-19T02:06:25.301Z,82.16
2019-03-19T02:08:57.366Z,82.07
2019-03-19T02:11:29.349Z,82.37
2019-03-19T02:14:01.282Z,82.81
2019-03-19T02:16:35.079Z,82.83
2019-03-19T02:19:07.190Z,83.58
2019-03-19T02:21:39.169Z,83.80
2019-03-19T02:24:11.246Z,82.93
2019-03-19T02:26:43.204Z,83.25
2019-03-19T02:29:15.148Z,83.74
2019-03-19T02:31:47.157Z,84.04
2019-03-19T02:34:19.082Z,84.03
2019-03-19T02:36:51.044Z,84.31
2019-03-19T02:39:22.982Z,85.21
2019-03-19T02:41:54.980Z,85.15
2019-03-19T02:44:26.972Z,85.62
2019-03-19T02:46:58.938Z,85.59
2019-03-19T02:49:30.894Z,85.73
2019-03-19T02:52:04.811Z,85.94
2019-03-19T02:54:36.869Z,86.19
2019-03-19T02:57:08.883Z,85.32
2019-03-19T02:59:40.822Z,85.27
2019-03-19T03:02:12.799Z,85.41
2019-03-19T03:04:44.730Z,85.74
2019-03-19T03:07:16.823Z,85.73
2019-03-19T03:09:48.771Z,85.64
2019-03-19T03:12:20.745Z,85.73
2019-03-19T03:14:52.685Z,86.00
2019-03-19T03:17:24.642Z,85.94
2019-03-19T03:19:56.627Z,85.77
2019-03-19T03:22:28.601Z,84.99
2019-03-19T03:25:00.758Z,84.64
2019-03-19T03:27:32.866Z,84.94
2019-03-19T03:30:05.896Z,85.13
2019-03-19T03:32:37.863Z,85.60
2019-03-19T03:35:10.113Z,85.76
2019-03-19T03:37:42.030Z,85.65
2019-03-19T03:40:14.061Z,85.42
2019-03-19T03:42:46.044Z,85.23
2019-03-19T03:45:18.015Z,85.20
2019-03-19T03:47:49.942Z,85.02
2019-03-19T03:50:21.935Z,85.05
2019-03-19T03:52:53.891Z,85.57
2019-03-19T03:55:25.867Z,85.76
2019-03-19T03:57:58.136Z,85.58
2019-03-19T04:00:30.110Z,85.47
2019-03-19T04:03:02.024Z,85.23
2019-03-19T04:05:33.997Z,84.65
2019-03-19T04:08:05.984Z,83.82
2019-03-19T04:10:37.913Z,84.36
2019-03-19T04:13:09.881Z,83.32
2019-03-19T04:15:41.862Z,83.56
2019-03-19T04:18:13.827Z,84.11
2019-03-19T04:20:45.812Z,84.86
2019-03-19T04:23:17.768Z,85.05
2019-03-19T04:25:49.729Z,84.92
2019-03-19T04:28:21.683Z,84.88
2019-03-19T04:30:53.862Z,85.20
2019-03-19T04:33:25.830Z,85.06
2019-03-19T04:35:57.803Z,84.90
2019-03-19T04:38:29.800Z,85.21
2019-03-19T04:41:01.790Z,84.73
2019-03-19T04:43:33.908Z,84.76
2019-03-19T04:46:05.885Z,84.58
2019-03-19T04:48:37.815Z,84.59
2019-03-19T04:51:11.588Z,84.07
2019-03-19T04:53:43.518Z,84.39
2019-03-19T04:56:15.490Z,84.64
2019-03-19T04:58:47.410Z,85.07
2019-03-19T05:01:19.384Z,84.24
2019-03-19T05:03:51.336Z,84.10
2019-03-19T05:06:23.310Z,84.19
2019-03-19T05:08:55.295Z,84.19
2019-03-19T05:11:27.287Z,84.16
2019-03-19T05:13:59.220Z,84.08
2019-03-19T05:16:31.227Z,84.03
2019-03-19T05:19:03.183Z,84.14
2019-03-19T05:21:35.159Z,84.43
2019-03-19T05:24:07.169Z,84.64
2019-03-19T05:26:39.170Z,84.54
2019-03-19T05:29:11.128Z,84.35
2019-03-19T05:31:43.122Z,84.48
2019-03-19T05:34:15.071Z,84.40
2019-03-19T05:36:47.034Z,84.32
2019-03-19T05:39:18.991Z,83.75
2019-03-19T05:41:50.936Z,84.22
2019-03-19T05:44:22.965Z,84.17
2019-03-19T05:46:54.934Z,84.37
2019-03-19T05:49:26.918Z,84.83
2019-03-19T05:51:58.869Z,84.58
2019-03-19T05:54:30.842Z,84.55
2019-03-19T05:57:02.861Z,84.82
2019-03-19T05:59:34.828Z,84.48
2019-03-19T06:02:06.792Z,84.32
2019-03-19T06:04:38.808Z,84.43
2019-03-19T06:07:10.816Z,84.90
2019-03-19T06:09:42.803Z,85.19
2019-03-19T06:12:14.727Z,84.47
2019-03-19T06:14:46.695Z,83.97
2019-03-19T06:17:18.631Z,84.09
2019-03-19T06:19:50.598Z,84.28
2019-03-19T06:22:22.564Z,84.29
2019-03-19T06:24:54.512Z,84.08
2019-03-19T06:27:26.478Z,83.70
2019-03-19T06:29:58.492Z,82.68
2019-03-19T06:32:30.438Z,82.66
2019-03-19T06:35:02.430Z,83.26
2019-03-19T06:37:34.437Z,83.22
2019-03-19T06:40:08.361Z,83.26
2019-03-19T06:42:40.342Z,83.12
2019-03-19T06:45:12.943Z,82.71
2019-03-19T06:47:44.918Z,81.34
2019-03-19T06:50:17.013Z,80.98
2019-03-19T06:52:48.967Z,79.46
2019-03-19T06:55:20.955Z,79.09
2019-03-19T06:58:10.315Z,77.25
2019-03-19T07:00:33.971Z,75.98
2019-03-19T07:03:05.958Z,74.27
2019-03-19T07:05:37.929Z,72.66
2019-03-19T07:08:09.881Z,71.49
2019-03-19T07:10:41.867Z,70.71
2019-03-19T07:13:14.013Z,69.81
2019-03-19T07:15:46.001Z,68.81
2019-03-19T07:18:17.952Z,68.42
2019-03-19T07:20:50.124Z,67.01
2019-03-19T07:23:22.096Z,68.15
2019-03-19T07:25:54.194Z,66.80
2019-03-19T07:28:26.163Z,67.98
2019-03-19T07:30:58.388Z,68.59
2019-03-19T07:33:30.385Z,68.28
2019-03-19T07:36:02.386Z,69.32
2019-03-19T07:38:34.365Z,67.03
2019-03-19T07:41:06.424Z,66.69
2019-03-19T07:43:38.370Z,66.25
2019-03-19T07:46:10.341Z,67.29
2019-03-19T07:48:42.317Z,68.26
2019-03-19T07:51:14.258Z,69.91
2019-03-19T07:53:46.241Z,68.96
2019-03-19T07:56:18.201Z,69.22
2019-03-19T07:58:50.173Z,67.45
2019-03-19T08:01:24.507Z,66.52
2019-03-19T08:03:56.007Z,66.25
2019-03-19T08:06:27.958Z,64.61
2019-03-19T08:08:59.949Z,63.98
2019-03-19T08:11:32.094Z,62.36
2019-03-19T08:14:04.065Z,64.49
2019-03-19T08:16:36.121Z,63.37
2019-03-19T08:19:09.202Z,64.16
2019-03-19T08:21:41.181Z,62.57
2019-03-19T08:24:13.203Z,63.49
2019-03-19T08:26:45.158Z,62.62
2019-03-19T08:29:17.152Z,60.86
2019-03-19T08:31:49.267Z,62.09
2019-03-19T08:34:21.248Z,59.96
2019-03-19T08:36:53.271Z,59.62
2019-03-19T08:39:25.255Z,59.62
2019-03-19T08:41:57.210Z,59.06
2019-03-19T08:44:29.298Z,61.90
2019-03-19T08:47:01.254Z,62.65
2019-03-19T08:49:35.044Z,61.10
2019-03-19T08:52:06.997Z,60.75
2019-03-19T08:54:39.074Z,60.35
2019-03-19T08:57:11.030Z,61.13
2019-03-19T08:59:43.004Z,57.41
2019-03-19T09:02:14.980Z,58.07
2019-03-19T09:04:46.953Z,56.66
2019-03-19T09:07:20.135Z,56.21
2019-03-19T09:09:52.248Z,57.17
2019-03-19T09:12:24.210Z,57.17
2019-03-19T09:14:56.173Z,52.33
2019-03-19T09:17:28.138Z,52.98
2019-03-19T09:20:00.333Z,52.98
2019-03-19T09:22:32.575Z,55.93
2019-03-19T09:25:05.243Z,57.24
2019-03-19T09:27:37.315Z,57.24
2019-03-19T09:30:11.756Z,53.43
2019-03-19T09:32:43.813Z,52.20
2019-03-19T09:35:16.014Z,50.74
2019-03-19T09:37:57.835Z,48.84
2019-03-19T09:40:21.883Z,50.37
2019-03-19T09:42:54.005Z,50.72
2019-03-19T09:45:25.985Z,50.72
2019-03-19T09:47:57.978Z,51.07
2019-03-19T09:50:29.961Z,48.87
2019-03-19T09:53:02.041Z,47.95
2019-03-19T09:55:34.021Z,46.90
2019-03-19T09:58:06.101Z,47.07
2019-03-19T10:00:38.151Z,47.54
2019-03-19T10:03:10.142Z,46.58
2019-03-19T10:05:42.089Z,46.35
2019-03-19T10:08:14.098Z,45.05
2019-03-19T10:10:46.115Z,43.51
2019-03-19T10:13:18.214Z,45.93
2019-03-19T10:15:50.161Z,45.64
2019-03-19T10:18:22.153Z,46.52
2019-03-19T10:20:54.186Z,49.63
2019-03-19T10:23:26.357Z,49.11
2019-03-19T10:25:58.317Z,48.90
2019-03-19T10:28:30.328Z,48.25
2019-03-19T10:31:02.324Z,49.63
2019-03-19T10:33:34.319Z,51.82
2019-03-19T10:36:06.338Z,51.94
2019-03-19T10:38:38.316Z,52.48
2019-03-19T10:41:10.302Z,53.04
2019-03-19T10:43:42.455Z,52.68
2019-03-19T10:46:14.996Z,49.82
2019-03-19T10:48:47.112Z,47.39
2019-03-19T10:51:19.101Z,47.89
2019-03-19T10:53:51.131Z,45.56
2019-03-19T10:56:24.224Z,44.73
2019-03-19T10:58:56.234Z,43.13
2019-03-19T11:01:28.213Z,44.82
2019-03-19T11:04:00.186Z,44.68
2019-03-19T11:06:32.157Z,42.88
2019-03-19T11:09:05.934Z,42.65
2019-03-19T11:11:37.901Z,41.96
2019-03-19T11:14:09.890Z,43.79
2019-03-19T11:16:41.844Z,43.47
2019-03-19T11:19:13.828Z,42.82
2019-03-19T11:21:45.888Z,42.62
2019-03-19T11:24:17.906Z,44.62
2019-03-19T11:26:49.936Z,44.75
2019-03-19T11:29:21.949Z,43.32
2019-03-19T11:31:53.995Z,43.38
2019-03-19T11:34:25.973Z,43.77
2019-03-19T11:36:58.259Z,44.44
2019-03-19T11:39:30.315Z,44.42
2019-03-19T11:42:02.314Z,43.92
2019-03-19T11:44:34.282Z,44.97
2019-03-19T11:47:06.320Z,43.36
2019-03-19T11:49:38.263Z,41.68
2019-03-19T11:52:10.353Z,42.62
2019-03-19T11:54:42.425Z,44.92
2019-03-19T11:57:14.413Z,44.65
2019-03-19T11:59:46.481Z,45.00
2019-03-19T12:02:25.898Z,43.91
2019-03-19T12:04:52.365Z,42.76
2019-03-19T12:07:24.387Z,42.93
2019-03-19T12:09:56.397Z,44.30
2019-03-19T12:12:28.367Z,44.14
2019-03-19T12:15:00.436Z,44.76
2019-03-19T12:17:32.525Z,43.84
2019-03-19T12:20:05.068Z,43.99
2019-03-19T12:22:37.056Z,42.05
2019-03-19T12:25:09.064Z,42.92
2019-03-19T12:27:41.272Z,42.06
2019-03-19T12:30:21.766Z,41.90
2019-03-19T12:32:47.482Z,41.55
2019-03-19T12:35:19.713Z,41.44
2019-03-19T12:37:51.686Z,41.03
2019-03-19T12:40:23.697Z,40.69
2019-03-19T12:42:55.680Z,40.22
2019-03-19T12:45:27.709Z,40.45
2019-03-19T12:47:59.751Z,40.22
2019-03-19T12:50:31.722Z,39.45
2019-03-19T12:53:03.992Z,40.67
2019-03-19T12:55:36.003Z,40.99
2019-03-19T12:58:07.991Z,39.88
2019-03-19T13:00:39.964Z,39.85
2019-03-19T13:03:11.973Z,40.51
2019-03-19T13:05:45.754Z,40.33
2019-03-19T13:08:20.220Z,40.81
2019-03-19T13:10:51.662Z,40.36
2019-03-19T13:13:23.619Z,41.33
2019-03-19T13:15:55.632Z,41.94
2019-03-19T13:18:27.622Z,40.97
2019-03-19T13:20:59.579Z,41.40
2019-03-19T13:23:31.563Z,42.08
2019-03-19T13:26:03.568Z,42.33
2019-03-19T13:28:35.542Z,42.85
2019-03-19T13:31:07.546Z,42.86
2019-03-19T13:33:39.510Z,42.42
2019-03-19T13:36:11.522Z,41.22
2019-03-19T13:38:43.496Z,41.73
2019-03-19T13:41:15.478Z,42.43
2019-03-19T13:43:47.436Z,42.52
2019-03-19T13:46:19.433Z,42.04
2019-03-19T13:48:51.407Z,40.70
2019-03-19T13:51:23.396Z,41.42
2019-03-19T13:53:55.357Z,42.31
2019-03-19T13:56:27.402Z,42.88
2019-03-19T13:58:59.399Z,41.25
2019-03-19T14:01:31.412Z,41.03
2019-03-19T14:04:03.484Z,41.06
2019-03-19T14:06:35.490Z,41.46
2019-03-19T14:09:08.385Z,42.18
2019-03-19T14:11:40.386Z,42.66
2019-03-19T14:14:12.385Z,42.72
2019-03-19T14:16:44.367Z,41.68
2019-03-19T14:19:16.328Z,41.73
2019-03-19T14:21:48.330Z,41.98
2019-03-19T14:24:20.282Z,42.76
2019-03-19T14:26:52.259Z,41.60
2019-03-19T14:29:24.243Z,41.50
2019-03-19T14:31:56.260Z,42.17
2019-03-19T14:34:28.221Z,41.68
2019-03-19T14:37:00.202Z,42.35
2019-03-19T14:39:32.175Z,43.65
2019-03-19T14:42:04.230Z,43.03
2019-03-19T14:44:36.250Z,42.83
2019-03-19T14:47:08.254Z,42.45
2019-03-19T14:49:47.044Z,42.74
2019-03-19T14:52:54.914Z,43.25
2019-03-19T14:55:46.350Z,40.56
2019-03-19T14:58:18.360Z,40.56
2019-03-19T15:00:50.309Z,41.90
2019-03-19T15:03:22.332Z,42.01
2019-03-19T15:05:54.356Z,42.22
2019-03-19T15:08:26.337Z,42.22
2019-03-19T15:10:58.322Z,42.26
2019-03-19T15:13:30.370Z,42.52
2019-03-19T15:16:02.334Z,42.52
2019-03-19T15:18:34.402Z,42.22
2019-03-19T15:21:06.392Z,41.99
2019-03-19T15:23:38.446Z,42.44
2019-03-19T15:26:10.475Z,41.63
2019-03-19T15:28:42.484Z,41.17
2019-03-19T15:31:14.547Z,41.14
2019-03-19T15:33:46.555Z,41.60
2019-03-19T15:36:18.523Z,42.69
2019-03-19T15:38:50.552Z,42.40
2019-03-19T15:41:22.629Z,41.60
2019-03-19T15:43:54.627Z,42.03
2019-03-19T15:46:26.737Z,42.14
2019-03-19T15:49:00.475Z,42.15
2019-03-19T15:51:32.637Z,41.92
2019-03-19T15:54:04.648Z,41.54
2019-03-19T15:56:36.633Z,40.98
2019-03-19T15:59:08.643Z,40.10
2019-03-19T16:01:40.867Z,41.08
2019-03-19T16:04:12.950Z,40.86
2019-03-19T16:06:44.943Z,40.92
2019-03-19T16:09:16.998Z,40.33
2019-03-19T16:11:49.008Z,40.90
2019-03-19T16:14:21.034Z,40.93
2019-03-19T16:16:53.054Z,41.27
2019-03-19T16:19:25.075Z,40.67
2019-03-19T16:21:57.067Z,40.25
2019-03-19T16:24:29.069Z,39.43
2019-03-19T16:27:01.035Z,39.75
2019-03-19T16:29:32.995Z,40.74
2019-03-19T16:32:05.041Z,41.32
2019-03-19T16:34:37.141Z,42.21
2019-03-19T16:37:09.146Z,41.86
2019-03-19T16:39:41.141Z,42.16
2019-03-19T16:42:13.156Z,41.78
2019-03-19T16:44:45.086Z,41.99
2019-03-19T16:47:17.163Z,41.38
2019-03-19T16:49:49.155Z,41.72
2019-03-19T16:52:21.214Z,42.02
2019-03-19T16:54:53.240Z,42.22
2019-03-19T16:57:25.300Z,42.32
2019-03-19T16:59:57.327Z,42.55
2019-03-19T17:02:29.343Z,43.37
2019-03-19T17:05:01.372Z,43.93
2019-03-19T17:07:33.394Z,44.29
2019-03-19T17:10:06.604Z,45.37
2019-03-19T17:12:38.625Z,46.01
2019-03-19T17:15:11.248Z,46.78
2019-03-19T17:17:43.306Z,45.88
2019-03-19T17:20:15.352Z,46.25
2019-03-19T17:22:47.525Z,46.17
2019-03-19T17:25:19.542Z,46.10
2019-03-19T17:27:51.531Z,46.29
2019-03-19T17:30:23.564Z,46.88
2019-03-19T17:32:55.602Z,47.58
2019-03-19T17:35:27.570Z,47.92
2019-03-19T17:37:59.611Z,48.85
2019-03-19T17:40:40.871Z,49.18
2019-03-19T17:43:05.523Z,49.39
2019-03-19T17:45:37.618Z,49.74
2019-03-19T17:48:16.208Z,50.07
2019-03-19T17:50:43.607Z,50.41
2019-03-19T17:53:15.666Z,50.77
2019-03-19T17:55:47.679Z,51.13
2019-03-19T17:58:19.767Z,51.85
2019-03-19T18:00:52.023Z,52.22
2019-03-19T18:03:24.056Z,52.31
2019-03-19T18:05:56.046Z,53.08
2019-03-19T18:08:28.219Z,53.89
2019-03-19T18:11:00.197Z,54.52
2019-03-19T18:13:32.233Z,54.89
2019-03-19T18:16:04.296Z,55.69
2019-03-19T18:18:36.387Z,55.92
2019-03-19T18:21:08.441Z,56.34
2019-03-19T18:23:40.508Z,57.28
2019-03-19T18:26:12.546Z,57.63
2019-03-19T18:28:44.553Z,58.01
2019-03-19T18:31:16.602Z,57.82
2019-03-19T18:33:48.605Z,58.30
2019-03-19T18:36:20.688Z,58.37
2019-03-19T18:38:52.758Z,58.32
2019-03-19T18:41:24.847Z,58.49
2019-03-19T18:43:56.936Z,58.99
2019-03-19T18:46:28.991Z,59.41
2019-03-19T18:49:01.019Z,59.32
2019-03-19T18:51:33.060Z,59.31
2019-03-19T18:54:05.073Z,59.36
2019-03-19T18:56:37.167Z,59.45
2019-03-19T18:59:09.207Z,59.26
2019-03-19T19:01:41.300Z,59.04
2019-03-19T19:04:13.337Z,59.44
2019-03-19T19:06:45.428Z,59.74
2019-03-19T19:09:17.478Z,60.07
2019-03-19T19:11:49.616Z,60.34
2019-03-19T19:14:21.670Z,60.88
2019-03-19T19:16:53.687Z,61.22
2019-03-19T19:19:25.745Z,61.38
2019-03-19T19:21:57.804Z,61.70
2019-03-19T19:24:29.799Z,62.42
2019-03-19T19:27:01.807Z,62.46
2019-03-19T19:29:33.885Z,63.23
2019-03-19T19:32:06.007Z,63.49
2019-03-19T19:34:38.022Z,63.68
2019-03-19T19:37:10.152Z,64.35
2019-03-19T19:39:42.266Z,64.54
2019-03-19T19:42:14.300Z,64.63
2019-03-19T19:44:46.312Z,64.96
2019-03-19T19:47:18.341Z,65.13
2019-03-19T19:49:50.394Z,65.00
2019-03-19T19:52:22.403Z,64.88
2019-03-19T19:54:54.498Z,65.54
2019-03-19T19:57:26.542Z,65.65
2019-03-19T19:59:58.810Z,65.91
2019-03-19T20:02:30.879Z,65.51
2019-03-19T20:05:03.803Z,64.82
2019-03-19T20:07:36.027Z,65.08
2019-03-19T20:10:10.894Z,64.55
2019-03-19T20:12:42.910Z,65.06
2019-03-19T20:15:14.979Z,65.34
2019-03-19T20:17:46.979Z,65.11
2019-03-19T20:20:19.041Z,65.49
2019-03-19T20:22:51.122Z,66.08
2019-03-19T20:25:23.162Z,66.39
2019-03-19T20:27:55.301Z,66.44
2019-03-19T20:30:27.395Z,66.44
2019-03-19T20:32:59.479Z,66.83
2019-03-19T20:35:31.532Z,67.21
2019-03-19T20:38:03.614Z,67.84
2019-03-19T20:40:35.710Z,68.21
2019-03-19T20:43:07.783Z,68.79
2019-03-19T20:45:39.827Z,69.42
2019-03-19T20:48:11.857Z,69.54
2019-03-19T20:50:43.902Z,69.44
2019-03-19T20:53:15.943Z,69.44
2019-03-19T20:55:47.946Z,69.65
2019-03-19T20:58:19.958Z,69.59
2019-03-19T21:00:52.019Z,69.75
2019-03-19T21:03:24.142Z,69.94
2019-03-19T21:05:56.123Z,69.66
2019-03-19T21:08:28.161Z,69.65
2019-03-19T21:11:00.172Z,69.61
2019-03-19T21:13:32.180Z,69.28
2019-03-19T21:16:04.234Z,69.28
2019-03-19T21:18:36.208Z,69.26
2019-03-19T21:21:08.221Z,69.53
2019-03-19T21:23:40.232Z,70.00
2019-03-19T21:26:12.280Z,69.94
2019-03-19T21:28:44.277Z,70.14
2019-03-19T21:31:16.386Z,70.39
2019-03-19T21:33:51.371Z,70.35
2019-03-19T21:36:22.329Z,70.26
2019-03-19T21:38:54.343Z,70.21
2019-03-19T21:41:26.355Z,70.51
2019-03-19T21:43:58.411Z,70.35
2019-03-19T21:46:30.572Z,70.85
2019-03-19T21:49:02.638Z,71.06
2019-03-19T21:51:34.620Z,71.09
2019-03-19T21:54:06.691Z,71.33
2019-03-19T21:56:38.642Z,71.28
2019-03-19T21:59:10.655Z,70.83
2019-03-19T22:01:42.655Z,71.11
2019-03-19T22:04:14.681Z,71.05
2019-03-19T22:06:46.844Z,70.72
2019-03-19T22:09:18.851Z,70.80
2019-03-19T22:11:50.856Z,70.78
2019-03-19T22:14:22.890Z,70.83
2019-03-19T22:16:57.634Z,70.87
2019-03-19T22:19:29.635Z,70.83
2019-03-19T22:22:01.605Z,70.81
2019-03-19T22:24:33.634Z,71.13
2019-03-19T22:27:05.599Z,71.40
2019-03-19T22:29:37.658Z,71.74
2019-03-19T22:32:09.666Z,71.65
2019-03-19T22:34:41.678Z,71.91
2019-03-19T22:37:13.626Z,71.96
2019-03-19T22:39:45.654Z,72.11
2019-03-19T22:42:17.621Z,72.15
2019-03-19T22:44:49.632Z,72.26
2019-03-19T22:47:21.599Z,72.13
2019-03-19T22:49:53.599Z,72.35
2019-03-19T22:52:25.566Z,72.22
2019-03-19T22:54:57.576Z,71.71
2019-03-19T22:57:29.589Z,71.51
2019-03-19T23:00:01.584Z,71.53
2019-03-19T23:02:33.778Z,71.74
2019-03-19T23:05:05.768Z,72.03
2019-03-19T23:07:37.784Z,71.93
2019-03-19T23:10:09.876Z,71.71
2019-03-19T23:12:41.874Z,72.26
2019-03-19T23:15:13.951Z,72.71
2019-03-19T23:17:45.984Z,72.88
2019-03-19T23:20:18.027Z,73.05
2019-03-19T23:22:50.027Z,73.16
2019-03-19T23:25:22.001Z,73.47
2019-03-19T23:27:54.024Z,74.19
2019-03-19T23:30:25.995Z,74.42
2019-03-19T23:32:58.046Z,74.40
2019-03-19T23:35:30.109Z,74.36
2019-03-19T23:38:02.116Z,74.38
2019-03-19T23:40:34.191Z,74.47
2019-03-19T23:43:06.186Z,74.40
2019-03-19T23:45:38.140Z,74.37
2019-03-19T23:48:10.212Z,74.10
2019-03-19T23:50:42.195Z,73.92
2019-03-19T23:53:14.223Z,73.82
2019-03-19T23:55:46.158Z,74.01
2019-03-19T23:58:18.151Z,74.08
